Wharton, Texas
Current Conditions -  °F | °C
As of 8:15 PM on Sunday 25 Jan 2015 (Local Time) from KARM Reporting Station
Clear Clear  
Wind Chill: 54°   Ceiling: Unl
Heat Index: 54°   Visibility: 10mi
Dew Point: 46°   Wind: 6mph
Humidity: 73%   Direction: 270°W
Pressure: 30.14"   Gusts: NA
Location:  29.32°N, 96.1°W
Report Text: KARM 260215Z AUTO 27005KT 10SM CLR 12/08 A3014 RMK AO2 T01220075
Loading
Personal Weather Stations






























Interactive Weather Map New forecast layout! Learn more

10-Day Weather Forecast

Advertisements
Track Severe Weather on mobile